Torrente — A8VQ2 — position and weather

sailwx.info

Track history (hours):
 
Tides and Currents Weather Stations Pressure Air Temp Water Temp Dewpoint Dewpoint Depression Visibility Wind Speed Wind Dir Waves Ship Positions

Torrente

Last reported at 2017-Sep-10 07:52 UTC. Time now 2017-Sep-22 08:34 UTC.
Position N 30°40' E 032°20'.
Warning: this ship's position is 12 days out of date.

Length 300 m; draft 13.5 m.

Type: Ship (hazmat cat A). MMSI: 636014649.

Date/timePositionNaut miles runAvg speedWind from/ knotsBaromVisibWave heightAir tempDewpointWater temp
2017-Sep-10 07:52N 30°40' E 032°20'4 8.2
2017-Sep-10 07:23N 30°44' E 032°20'35 8.4
2017-Sep-10 03:16N 31°19' E 032°22'2 6.9
2017-Sep-10 02:58N 31°21' E 032°23'510.7
2017-Sep-10 02:30N 31°26' E 032°24'4 0.8
2017-Sep-09 21:42N 31°25' E 032°19'0 0.0
2017-Sep-09 21:18N 31°25' E 032°19'0 0.4
2017-Sep-09 20:54N 31°26' E 032°19'0 0.2
2017-Sep-09 19:52N 31°26' E 032°19'4 9.6
2017-Sep-09 19:26N 31°29' E 032°16'613.2
2017-Sep-09 19:00N 31°33' E 032°11'713.2
2017-Sep-09 18:27N 31°38' E 032°05'715.4
2017-Sep-09 18:00N 31°43' E 031°59'1018.2
2017-Sep-09 17:28N 31°48' E 031°50'918.5
2017-Sep-09 16:59N 31°53' E 031°41'1318.2
2017-Sep-09 16:17N 31°57' E 031°27'518.5
2017-Sep-09 16:01N 31°59' E 031°21'918.0
2017-Sep-09 15:30N 32°02' E 031°11'918.0
2017-Sep-09 15:00N 32°06' E 031°01'3 4.7
2017-Sep-09 14:29N 32°06' E 030°58'816.1
2017-Sep-09 14:00N 32°10' E 030°50'816.5
2017-Sep-09 13:30N 32°13' E 030°41'816.8
2017-Sep-09 13:00N 32°15' E 030°32'2216.4
2017-Sep-09 11:40N 32°21' E 030°07'316.3
2017-Sep-09 11:30N 32°21' E 030°03'1516.2
2017-Sep-09 10:36N 32°26' E 029°47'76816.3
2017-Sep-07 11:33N 36°09' E 014°58'516.4
2017-Sep-07 11:16N 36°10' E 014°52'416.4
2017-Sep-07 11:00N 36°11' E 014°47'816.5
2017-Sep-07 10:30N 36°13' E 014°37'816.0
2017-Sep-07 10:00N 36°16' E 014°28'816.3
2017-Sep-07 09:30N 36°19' E 014°18'816.4
2017-Sep-07 09:00N 36°22' E 014°09'816.5
2017-Sep-07 08:30N 36°25' E 013°60'816.5
2017-Sep-07 08:00N 36°28' E 013°50'816.3
2017-Sep-07 07:30N 36°30' E 013°40'816.2
2017-Sep-07 07:00N 36°33' E 013°31'816.1
2017-Sep-07 06:30N 36°35' E 013°21'816.1
2017-Sep-07 06:00N 36°37' E 013°12'816.0
2017-Sep-07 05:30N 36°40' E 013°02'815.9
2017-Sep-07 05:00N 36°42' E 012°53'816.1
2017-Sep-07 04:30N 36°45' E 012°43'816.0
2017-Sep-07 04:00N 36°48' E 012°34'816.2
2017-Sep-07 03:30N 36°51' E 012°25'11214.9
2017-Sep-06 19:56N 38°00' E 010°33'716.5
2017-Sep-06 19:30N 37°60' E 010°24'3316.5
2017-Sep-06 17:29N 37°56' E 009°42'17016.0
2017-Sep-06 06:49N 37°41' E 006°07'3015.4
2017-Sep-06 04:53N 37°38' E 005°29'615.6
2017-Sep-06 04:30N 37°37' E 005°22'1815.5
2017-Sep-06 03:22N 37°36' E 004°60'1515.4
2017-Sep-06 02:23N 37°35' E 004°41'615.4
2017-Sep-06 01:59N 37°34' E 004°33'815.5
2017-Sep-06 01:27N 37°34' E 004°23'715.5
2017-Sep-06 01:00N 37°34' E 004°14'815.6
2017-Sep-06 00:30N 37°34' E 004°04'815.4
2017-Sep-06 00:00N 37°33' E 003°54'815.2
2017-Sep-05 23:28N 37°32' E 003°44'715.0
2017-Sep-05 22:59N 37°31' E 003°35'715.1
2017-Sep-05 22:30N 37°30' E 003°26'815.3
2017-Sep-05 22:00N 37°29' E 003°16'815.6
2017-Sep-05 21:28N 37°28' E 003°06'715.5
2017-Sep-05 21:00N 37°27' E 002°57'815.5
2017-Sep-05 20:30N 37°26' E 002°47'815.6
2017-Sep-05 20:00N 37°23' E 002°38'1015.9
2017-Sep-05 19:24N 37°20' E 002°27'615.7
2017-Sep-05 19:00N 37°18' E 002°19'815.5
2017-Sep-05 18:30N 37°15' E 002°10'815.2
2017-Sep-05 18:00N 37°13' E 002°01'715.0
2017-Sep-05 17:30N 37°12' E 001°52'714.8
2017-Sep-05 17:00N 37°11' E 001°43'714.8
2017-Sep-05 16:30N 37°09' E 001°34'714.8
2017-Sep-05 16:00N 37°07' E 001°25'814.8
2017-Sep-05 15:29N 37°04' E 001°15'914.8
2017-Sep-05 14:53N 37°02' E 001°05'615.1
2017-Sep-05 14:30N 36°60' E 000°58'815.4
2017-Sep-05 14:00N 36°58' E 000°49'815.4
2017-Sep-05 13:30N 36°56' E 000°39'815.6
2017-Sep-05 12:59N 36°54' E 000°30'815.5
2017-Sep-05 12:30N 36°52' E 000°20'715.2
2017-Sep-05 12:00N 36°48' E 000°12'915.2
2017-Sep-05 11:26N 36°45' E 000°02'1815.3
2017-Sep-05 10:16N 36°39' W 000°19'415.2
2017-Sep-05 10:00N 36°37' W 000°23'1015.2
2017-Sep-05 09:22N 36°34' W 000°34'242 7.2
2017-Sep-03 23:50N 35°54' W 005°30'2 4.6
2017-Sep-03 23:30N 35°55' W 005°30'3 1.2
2017-Sep-03 20:57N 35°54' W 005°33'1 3.1
2017-Sep-03 20:29N 35°54' W 005°35'1 0.6
2017-Sep-03 19:32N 35°54' W 005°34'0 1.4
2017-Sep-03 19:30N 35°54' W 005°34'3 3.2
2017-Sep-03 18:41N 35°54' W 005°37'2511.5
2017-Sep-03 16:31N 35°53' W 006°08'011.7
2017-Sep-03 16:30N 35°53' W 006°08'4416.1
2017-Sep-03 13:46N 36°02' W 007°01'518.3
2017-Sep-03 13:30N 36°04' W 007°08'4416.5
2017-Sep-03 10:50N 36°16' W 007°60'618.1
2017-Sep-03 10:30N 36°18' W 008°07'1218.5
2017-Sep-03 09:52N 36°21' W 008°21'616.7
2017-Sep-03 09:30N 36°23' W 008°28'815.3
2017-Sep-03 09:00N 36°25' W 008°37'714.4
2017-Sep-03 08:30N 36°27' W 008°46'714.3
2017-Sep-03 08:00N 36°28' W 008°55'713.7
2017-Sep-03 07:30N 36°30' W 009°03'611.7
2017-Sep-03 07:00N 36°32' W 009°10'611.5
2017-Sep-03 06:30N 36°33' W 009°17'611.1
2017-Sep-03 06:00N 36°37' W 009°22'611.3
2017-Sep-03 05:30N 36°42' W 009°26'611.4
2017-Sep-03 05:00N 36°46' W 009°31'611.1
2017-Sep-03 04:30N 36°51' W 009°34'611.5
2017-Sep-03 04:00N 36°56' W 009°36'611.6
2017-Sep-03 03:30N 37°02' W 009°38'611.6
2017-Sep-03 03:00N 37°08' W 009°40'611.4
2017-Sep-03 02:30N 37°13' W 009°41'611.4
2017-Sep-03 02:01N 37°19' W 009°43'611.5
2017-Sep-03 01:30N 37°24' W 009°45'611.5
2017-Sep-03 01:00N 37°30' W 009°47'611.5
2017-Sep-03 00:30N 37°35' W 009°48'611.4
2017-Sep-03 00:00N 37°41' W 009°49'611.4
2017-Sep-02 23:30N 37°47' W 009°50'611.6
2017-Sep-02 23:00N 37°52' W 009°52'611.9
2017-Sep-02 22:30N 37°58' W 009°53'611.9
2017-Sep-02 22:00N 38°04' W 009°55'612.1
2017-Sep-02 21:30N 38°10' W 009°57'611.6
2017-Sep-02 21:00N 38°16' W 009°59'611.6
2017-Sep-02 20:30N 38°21' W 010°00'611.5
2017-Sep-02 20:00N 38°27' W 010°02'611.2
2017-Sep-02 19:30N 38°32' W 010°03'611.2
2017-Sep-02 19:00N 38°38' W 010°05'611.7
2017-Sep-02 18:30N 38°44' W 010°06'611.6
2017-Sep-02 18:00N 38°49' W 010°07'611.8
2017-Sep-02 17:30N 38°55' W 010°07'611.6
2017-Sep-02 17:00N 39°01' W 010°07'611.7
2017-Sep-02 16:30N 39°07' W 010°07'611.7
2017-Sep-02 16:00N 39°13' W 010°06'611.5
2017-Sep-02 15:30N 39°18' W 010°05'611.4
2017-Sep-02 15:00N 39°24' W 010°05'611.6
2017-Sep-02 14:30N 39°30' W 010°05'611.5
2017-Sep-02 14:00N 39°36' W 010°05'611.5
2017-Sep-02 13:30N 39°41' W 010°06'611.5
2017-Sep-02 13:00N 39°47' W 010°06'611.5
2017-Sep-02 12:30N 39°53' W 010°06'611.6
2017-Sep-02 12:00N 39°59' W 010°06'611.3
2017-Sep-02 11:30N 40°04' W 010°06'611.4
2017-Sep-02 11:00N 40°10' W 010°06'611.3
2017-Sep-02 10:30N 40°16' W 010°06'510.9
2017-Sep-02 10:00N 40°21' W 010°06'610.9
2017-Sep-02 09:30N 40°27' W 010°07'611.2
2017-Sep-02 09:00N 40°32' W 010°07'611.3
2017-Sep-02 08:30N 40°38' W 010°07'511.2
2017-Sep-02 08:00N 40°43' W 010°07'611.3
2017-Sep-02 07:30N 40°49' W 010°08'611.2
2017-Sep-02 07:00N 40°55' W 010°08'611.2
2017-Sep-02 06:30N 41°00' W 010°08'50711.1
2017-Aug-31 08:59N 48°53' W 005°48'510.2
2017-Aug-31 08:30N 48°56' W 005°43'  
Track history (hours):
 
Tides and Currents Weather Stations Pressure Air Temp Water Temp Dewpoint Dewpoint Depression Visibility Wind Speed Wind Dir Waves Ship Positions

Torrente

Last reported at 2017-Sep-10 07:52 UTC. Time now 2017-Sep-22 08:34 UTC.
Position N 30°40' E 032°20'.
Warning: this ship's position is 12 days out of date.

Length 300 m; draft 13.5 m.

Type: Ship (hazmat cat A). MMSI: 636014649.

Date/timePositionNaut miles runAvg speedWind from/ knotsBaromVisibWave heightAir tempDewpointWater temp
2017-Sep-10 07:52N 30°40' E 032°20'4 8.2
2017-Sep-10 07:23N 30°44' E 032°20'35 8.4
2017-Sep-10 03:16N 31°19' E 032°22'2 6.9
2017-Sep-10 02:58N 31°21' E 032°23'510.7
2017-Sep-10 02:30N 31°26' E 032°24'4 0.8
2017-Sep-09 21:42N 31°25' E 032°19'0 0.0
2017-Sep-09 21:18N 31°25' E 032°19'0 0.4
2017-Sep-09 20:54N 31°26' E 032°19'0 0.2
2017-Sep-09 19:52N 31°26' E 032°19'4 9.6
2017-Sep-09 19:26N 31°29' E 032°16'613.2
2017-Sep-09 19:00N 31°33' E 032°11'713.2
2017-Sep-09 18:27N 31°38' E 032°05'715.4
2017-Sep-09 18:00N 31°43' E 031°59'1018.2
2017-Sep-09 17:28N 31°48' E 031°50'918.5
2017-Sep-09 16:59N 31°53' E 031°41'1318.2
2017-Sep-09 16:17N 31°57' E 031°27'518.5
2017-Sep-09 16:01N 31°59' E 031°21'918.0
2017-Sep-09 15:30N 32°02' E 031°11'918.0
2017-Sep-09 15:00N 32°06' E 031°01'3 4.7
2017-Sep-09 14:29N 32°06' E 030°58'816.1
2017-Sep-09 14:00N 32°10' E 030°50'816.5
2017-Sep-09 13:30N 32°13' E 030°41'816.8
2017-Sep-09 13:00N 32°15' E 030°32'2216.4
2017-Sep-09 11:40N 32°21' E 030°07'316.3
2017-Sep-09 11:30N 32°21' E 030°03'1516.2
2017-Sep-09 10:36N 32°26' E 029°47'76816.3
2017-Sep-07 11:33N 36°09' E 014°58'516.4
2017-Sep-07 11:16N 36°10' E 014°52'416.4
2017-Sep-07 11:00N 36°11' E 014°47'816.5
2017-Sep-07 10:30N 36°13' E 014°37'816.0
2017-Sep-07 10:00N 36°16' E 014°28'816.3
2017-Sep-07 09:30N 36°19' E 014°18'816.4
2017-Sep-07 09:00N 36°22' E 014°09'816.5
2017-Sep-07 08:30N 36°25' E 013°60'816.5
2017-Sep-07 08:00N 36°28' E 013°50'816.3
2017-Sep-07 07:30N 36°30' E 013°40'816.2
2017-Sep-07 07:00N 36°33' E 013°31'816.1
2017-Sep-07 06:30N 36°35' E 013°21'816.1
2017-Sep-07 06:00N 36°37' E 013°12'816.0
2017-Sep-07 05:30N 36°40' E 013°02'815.9
2017-Sep-07 05:00N 36°42' E 012°53'816.1
2017-Sep-07 04:30N 36°45' E 012°43'816.0
2017-Sep-07 04:00N 36°48' E 012°34'816.2
2017-Sep-07 03:30N 36°51' E 012°25'11214.9
2017-Sep-06 19:56N 38°00' E 010°33'716.5
2017-Sep-06 19:30N 37°60' E 010°24'3316.5
2017-Sep-06 17:29N 37°56' E 009°42'17016.0
2017-Sep-06 06:49N 37°41' E 006°07'3015.4
2017-Sep-06 04:53N 37°38' E 005°29'615.6
2017-Sep-06 04:30N 37°37' E 005°22'1815.5
2017-Sep-06 03:22N 37°36' E 004°60'1515.4
2017-Sep-06 02:23N 37°35' E 004°41'615.4
2017-Sep-06 01:59N 37°34' E 004°33'815.5
2017-Sep-06 01:27N 37°34' E 004°23'715.5
2017-Sep-06 01:00N 37°34' E 004°14'815.6
2017-Sep-06 00:30N 37°34' E 004°04'815.4
2017-Sep-06 00:00N 37°33' E 003°54'815.2
2017-Sep-05 23:28N 37°32' E 003°44'715.0
2017-Sep-05 22:59N 37°31' E 003°35'715.1
2017-Sep-05 22:30N 37°30' E 003°26'815.3
2017-Sep-05 22:00N 37°29' E 003°16'815.6
2017-Sep-05 21:28N 37°28' E 003°06'715.5
2017-Sep-05 21:00N 37°27' E 002°57'815.5
2017-Sep-05 20:30N 37°26' E 002°47'815.6
2017-Sep-05 20:00N 37°23' E 002°38'1015.9
2017-Sep-05 19:24N 37°20' E 002°27'615.7
2017-Sep-05 19:00N 37°18' E 002°19'815.5
2017-Sep-05 18:30N 37°15' E 002°10'815.2
2017-Sep-05 18:00N 37°13' E 002°01'715.0
2017-Sep-05 17:30N 37°12' E 001°52'714.8
2017-Sep-05 17:00N 37°11' E 001°43'714.8
2017-Sep-05 16:30N 37°09' E 001°34'714.8
2017-Sep-05 16:00N 37°07' E 001°25'814.8
2017-Sep-05 15:29N 37°04' E 001°15'914.8
2017-Sep-05 14:53N 37°02' E 001°05'615.1
2017-Sep-05 14:30N 36°60' E 000°58'815.4
2017-Sep-05 14:00N 36°58' E 000°49'815.4
2017-Sep-05 13:30N 36°56' E 000°39'815.6
2017-Sep-05 12:59N 36°54' E 000°30'815.5
2017-Sep-05 12:30N 36°52' E 000°20'715.2
2017-Sep-05 12:00N 36°48' E 000°12'915.2
2017-Sep-05 11:26N 36°45' E 000°02'1815.3
2017-Sep-05 10:16N 36°39' W 000°19'415.2
2017-Sep-05 10:00N 36°37' W 000°23'1015.2
2017-Sep-05 09:22N 36°34' W 000°34'242 7.2
2017-Sep-03 23:50N 35°54' W 005°30'2 4.6
2017-Sep-03 23:30N 35°55' W 005°30'3 1.2
2017-Sep-03 20:57N 35°54' W 005°33'1 3.1
2017-Sep-03 20:29N 35°54' W 005°35'1 0.6
2017-Sep-03 19:32N 35°54' W 005°34'0 1.4
2017-Sep-03 19:30N 35°54' W 005°34'3 3.2
2017-Sep-03 18:41N 35°54' W 005°37'2511.5
2017-Sep-03 16:31N 35°53' W 006°08'011.7
2017-Sep-03 16:30N 35°53' W 006°08'4416.1
2017-Sep-03 13:46N 36°02' W 007°01'518.3
2017-Sep-03 13:30N 36°04' W 007°08'4416.5
2017-Sep-03 10:50N 36°16' W 007°60'618.1
2017-Sep-03 10:30N 36°18' W 008°07'1218.5
2017-Sep-03 09:52N 36°21' W 008°21'616.7
2017-Sep-03 09:30N 36°23' W 008°28'815.3
2017-Sep-03 09:00N 36°25' W 008°37'714.4
2017-Sep-03 08:30N 36°27' W 008°46'714.3
2017-Sep-03 08:00N 36°28' W 008°55'713.7
2017-Sep-03 07:30N 36°30' W 009°03'611.7
2017-Sep-03 07:00N 36°32' W 009°10'611.5
2017-Sep-03 06:30N 36°33' W 009°17'611.1
2017-Sep-03 06:00N 36°37' W 009°22'611.3
2017-Sep-03 05:30N 36°42' W 009°26'611.4
2017-Sep-03 05:00N 36°46' W 009°31'611.1
2017-Sep-03 04:30N 36°51' W 009°34'611.5
2017-Sep-03 04:00N 36°56' W 009°36'611.6
2017-Sep-03 03:30N 37°02' W 009°38'611.6
2017-Sep-03 03:00N 37°08' W 009°40'611.4
2017-Sep-03 02:30N 37°13' W 009°41'611.4
2017-Sep-03 02:01N 37°19' W 009°43'611.5
2017-Sep-03 01:30N 37°24' W 009°45'611.5
2017-Sep-03 01:00N 37°30' W 009°47'611.5
2017-Sep-03 00:30N 37°35' W 009°48'611.4
2017-Sep-03 00:00N 37°41' W 009°49'611.4
2017-Sep-02 23:30N 37°47' W 009°50'611.6
2017-Sep-02 23:00N 37°52' W 009°52'611.9
2017-Sep-02 22:30N 37°58' W 009°53'611.9
2017-Sep-02 22:00N 38°04' W 009°55'612.1
2017-Sep-02 21:30N 38°10' W 009°57'611.6
2017-Sep-02 21:00N 38°16' W 009°59'611.6
2017-Sep-02 20:30N 38°21' W 010°00'611.5
2017-Sep-02 20:00N 38°27' W 010°02'611.2
2017-Sep-02 19:30N 38°32' W 010°03'611.2
2017-Sep-02 19:00N 38°38' W 010°05'611.7
2017-Sep-02 18:30N 38°44' W 010°06'611.6
2017-Sep-02 18:00N 38°49' W 010°07'611.8
2017-Sep-02 17:30N 38°55' W 010°07'611.6
2017-Sep-02 17:00N 39°01' W 010°07'611.7
2017-Sep-02 16:30N 39°07' W 010°07'611.7
2017-Sep-02 16:00N 39°13' W 010°06'611.5
2017-Sep-02 15:30N 39°18' W 010°05'611.4
2017-Sep-02 15:00N 39°24' W 010°05'611.6
2017-Sep-02 14:30N 39°30' W 010°05'611.5
2017-Sep-02 14:00N 39°36' W 010°05'611.5
2017-Sep-02 13:30N 39°41' W 010°06'611.5
2017-Sep-02 13:00N 39°47' W 010°06'611.5
2017-Sep-02 12:30N 39°53' W 010°06'611.6
2017-Sep-02 12:00N 39°59' W 010°06'611.3
2017-Sep-02 11:30N 40°04' W 010°06'611.4
2017-Sep-02 11:00N 40°10' W 010°06'611.3
2017-Sep-02 10:30N 40°16' W 010°06'510.9
2017-Sep-02 10:00N 40°21' W 010°06'610.9
2017-Sep-02 09:30N 40°27' W 010°07'611.2
2017-Sep-02 09:00N 40°32' W 010°07'611.3
2017-Sep-02 08:30N 40°38' W 010°07'511.2
2017-Sep-02 08:00N 40°43' W 010°07'611.3
2017-Sep-02 07:30N 40°49' W 010°08'611.2
2017-Sep-02 07:00N 40°55' W 010°08'611.2
2017-Sep-02 06:30N 41°00' W 010°08'50711.1
2017-Aug-31 08:59N 48°53' W 005°48'510.2
2017-Aug-31 08:30N 48°56' W 005°43'  

Dump ship's entire track history